sensor_id;sensor_type;location;lat;lon;timestamp;pressure;altitude;pressure_sealevel;temperature;humidity
64141;BME280;50436;50.618;7.932;2023-08-21T00:00:34;97178.41;;;20.62;100.00
64141;BME280;50436;50.618;7.932;2023-08-21T00:03:21;97176.94;;;20.70;100.00
64141;BME280;50436;50.618;7.932;2023-08-21T00:06:07;97177.31;;;20.82;100.00
64141;BME280;50436;50.618;7.932;2023-08-21T00:08:53;97172.91;;;20.86;100.00
64141;BME280;50436;50.618;7.932;2023-08-21T00:11:38;97175.88;;;20.84;100.00
64141;BME280;50436;50.618;7.932;2023-08-21T00:14:24;97182.69;;;21.01;100.00
64141;BME280;50436;50.618;7.932;2023-08-21T00:17:10;97173.94;;;21.04;100.00
64141;BME280;50436;50.618;7.932;2023-08-21T00:19:56;97179.38;;;21.04;100.00
64141;BME280;50436;50.618;7.932;2023-08-21T00:22:42;97176.16;;;21.02;100.00
64141;BME280;50436;50.618;7.932;2023-08-21T00:25:28;97170.06;;;20.91;100.00
64141;BME280;50436;50.618;7.932;2023-08-21T00:31:01;97162.97;;;20.76;100.00
64141;BME280;50436;50.618;7.932;2023-08-21T00:33:47;97164.00;;;20.62;100.00
64141;BME280;50436;50.618;7.932;2023-08-21T00:36:33;97164.47;;;20.50;100.00
64141;BME280;50436;50.618;7.932;2023-08-21T00:39:19;97161.25;;;20.48;100.00
64141;BME280;50436;50.618;7.932;2023-08-21T00:42:05;97169.50;;;20.38;100.00
64141;BME280;50436;50.618;7.932;2023-08-21T00:44:52;97163.63;;;20.30;100.00
64141;BME280;50436;50.618;7.932;2023-08-21T00:47:38;97160.41;;;20.10;100.00
64141;BME280;50436;50.618;7.932;2023-08-21T00:50:24;97171.63;;;20.03;100.00
64141;BME280;50436;50.618;7.932;2023-08-21T00:53:10;97165.41;;;20.02;100.00
64141;BME280;50436;50.618;7.932;2023-08-21T00:55:56;97164.75;;;20.11;100.00
64141;BME280;50436;50.618;7.932;2023-08-21T00:58:42;97164.88;;;20.19;100.00
64141;BME280;50436;50.618;7.932;2023-08-21T01:01:29;97159.47;;;20.19;100.00
64141;BME280;50436;50.618;7.932;2023-08-21T01:04:15;97167.09;;;20.17;100.00
64141;BME280;50436;50.618;7.932;2023-08-21T01:07:01;97159.47;;;20.19;100.00
64141;BME280;50436;50.618;7.932;2023-08-21T01:09:56;97165.34;;;20.26;100.00
64141;BME280;50436;50.618;7.932;2023-08-21T01:15:59;97172.44;;;20.22;100.00
64141;BME280;50436;50.618;7.932;2023-08-21T01:18:47;97173.03;;;20.19;100.00
64141;BME280;50436;50.618;7.932;2023-08-21T01:21:34;97172.75;;;20.21;100.00
64141;BME280;50436;50.618;7.932;2023-08-21T01:24:20;97175.75;;;20.19;100.00
64141;BME280;50436;50.618;7.932;2023-08-21T01:27:06;97183.47;;;20.12;100.00
64141;BME280;50436;50.618;7.932;2023-08-21T01:29:52;97187.03;;;20.08;100.00
64141;BME280;50436;50.618;7.932;2023-08-21T01:35:31;97180.06;;;20.01;100.00
64141;BME280;50436;50.618;7.932;2023-08-21T01:38:19;97185.09;;;19.89;100.00
64141;BME280;50436;50.618;7.932;2023-08-21T01:41:05;97184.94;;;19.81;100.00
64141;BME280;50436;50.618;7.932;2023-08-21T01:43:52;97185.38;;;19.69;100.00
64141;BME280;50436;50.618;7.932;2023-08-21T01:46:38;97194.97;;;19.61;100.00
64141;BME280;50436;50.618;7.932;2023-08-21T01:49:24;97185.41;;;19.64;100.00
64141;BME280;50436;50.618;7.932;2023-08-21T01:52:09;97189.78;;;19.60;100.00
64141;BME280;50436;50.618;7.932;2023-08-21T01:54:56;97189.28;;;19.53;100.00
64141;BME280;50436;50.618;7.932;2023-08-21T01:57:42;97191.75;;;19.54;100.00
64141;BME280;50436;50.618;7.932;2023-08-21T02:00:28;97186.84;;;19.56;100.00
64141;BME280;50436;50.618;7.932;2023-08-21T02:03:14;97187.88;;;19.60;100.00
64141;BME280;50436;50.618;7.932;2023-08-21T02:06:00;97184.03;;;19.66;100.00
64141;BME280;50436;50.618;7.932;2023-08-21T02:08:46;97176.97;;;19.65;100.00
64141;BME280;50436;50.618;7.932;2023-08-21T02:11:32;97180.28;;;19.62;100.00
64141;BME280;50436;50.618;7.932;2023-08-21T02:14:18;97176.03;;;19.51;100.00
64141;BME280;50436;50.618;7.932;2023-08-21T02:17:03;97174.19;;;19.46;100.00
64141;BME280;50436;50.618;7.932;2023-08-21T02:19:50;97180.34;;;19.52;100.00
64141;BME280;50436;50.618;7.932;2023-08-21T02:22:36;97168.38;;;19.53;100.00
64141;BME280;50436;50.618;7.932;2023-08-21T02:25:22;97173.50;;;19.60;100.00
64141;BME280;50436;50.618;7.932;2023-08-21T02:28:08;97166.47;;;19.59;100.00
64141;BME280;50436;50.618;7.932;2023-08-21T02:30:54;97171.34;;;19.62;100.00
64141;BME280;50436;50.618;7.932;2023-08-21T02:33:43;97169.19;;;19.59;100.00
64141;BME280;50436;50.618;7.932;2023-08-21T02:36:28;97173.31;;;19.51;100.00
64141;BME280;50436;50.618;7.932;2023-08-21T02:39:14;97181.56;;;19.41;100.00
64141;BME280;50436;50.618;7.932;2023-08-21T02:42:00;97177.63;;;19.28;100.00
64141;BME280;50436;50.618;7.932;2023-08-21T02:44:46;97180.09;;;19.25;100.00
64141;BME280;50436;50.618;7.932;2023-08-21T02:47:32;97173.69;;;19.15;100.00
64141;BME280;50436;50.618;7.932;2023-08-21T02:50:18;97171.25;;;19.14;100.00
64141;BME280;50436;50.618;7.932;2023-08-21T02:53:04;97181.81;;;19.15;100.00
64141;BME280;50436;50.618;7.932;2023-08-21T02:55:50;97173.06;;;19.24;100.00
64141;BME280;50436;50.618;7.932;2023-08-21T02:58:35;97168.50;;;19.19;100.00
64141;BME280;50436;50.618;7.932;2023-08-21T03:01:22;97162.38;;;19.08;100.00
64141;BME280;50436;50.618;7.932;2023-08-21T03:04:07;97167.16;;;19.16;100.00
64141;BME280;50436;50.618;7.932;2023-08-21T03:06:53;97171.59;;;19.07;100.00
64141;BME280;50436;50.618;7.932;2023-08-21T03:09:39;97176.44;;;19.10;100.00
64141;BME280;50436;50.618;7.932;2023-08-21T03:12:25;97168.34;;;19.05;100.00
64141;BME280;50436;50.618;7.932;2023-08-21T03:15:11;97167.81;;;19.03;100.00
64141;BME280;50436;50.618;7.932;2023-08-21T03:17:57;97169.94;;;19.06;100.00
64141;BME280;50436;50.618;7.932;2023-08-21T03:20:47;97163.16;;;19.09;100.00
64141;BME280;50436;50.618;7.932;2023-08-21T03:23:33;97163.78;;;19.01;100.00
64141;BME280;50436;50.618;7.932;2023-08-21T03:26:19;97167.97;;;18.88;100.00
64141;BME280;50436;50.618;7.932;2023-08-21T03:29:05;97163.63;;;18.87;100.00
64141;BME280;50436;50.618;7.932;2023-08-21T03:31:52;97166.91;;;18.84;100.00
64141;BME280;50436;50.618;7.932;2023-08-21T03:34:39;97162.53;;;18.88;100.00
64141;BME280;50436;50.618;7.932;2023-08-21T03:37:25;97165.28;;;18.83;100.00
64141;BME280;50436;50.618;7.932;2023-08-21T03:40:11;97161.50;;;18.84;100.00
64141;BME280;50436;50.618;7.932;2023-08-21T03:42:57;97163.13;;;18.85;100.00
64141;BME280;50436;50.618;7.932;2023-08-21T03:45:42;97169.56;;;18.89;100.00
64141;BME280;50436;50.618;7.932;2023-08-21T03:48:29;97167.41;;;18.91;100.00
64141;BME280;50436;50.618;7.932;2023-08-21T03:51:15;97167.59;;;19.00;100.00
64141;BME280;50436;50.618;7.932;2023-08-21T03:54:00;97168.22;;;18.91;100.00
64141;BME280;50436;50.618;7.932;2023-08-21T03:56:46;97163.34;;;18.88;100.00
64141;BME280;50436;50.618;7.932;2023-08-21T03:59:33;97161.53;;;18.79;100.00
64141;BME280;50436;50.618;7.932;2023-08-21T04:02:20;97161.25;;;18.80;100.00
64141;BME280;50436;50.618;7.932;2023-08-21T04:05:06;97164.47;;;18.82;100.00
64141;BME280;50436;50.618;7.932;2023-08-21T04:07:52;97165.34;;;18.78;100.00
64141;BME280;50436;50.618;7.932;2023-08-21T04:10:37;97168.59;;;18.75;100.00
64141;BME280;50436;50.618;7.932;2023-08-21T04:13:24;97169.66;;;18.79;100.00
64141;BME280;50436;50.618;7.932;2023-08-21T04:16:10;97169.09;;;18.82;100.00
64141;BME280;50436;50.618;7.932;2023-08-21T04:18:57;97164.63;;;18.96;100.00
64141;BME280;50436;50.618;7.932;2023-08-21T04:21:43;97161.06;;;19.01;100.00
64141;BME280;50436;50.618;7.932;2023-08-21T04:24:29;97168.91;;;19.02;100.00
64141;BME280;50436;50.618;7.932;2023-08-21T04:27:15;97169.16;;;19.06;100.00
64141;BME280;50436;50.618;7.932;2023-08-21T04:30:01;97172.13;;;19.09;100.00
64141;BME280;50436;50.618;7.932;2023-08-21T04:32:47;97172.91;;;19.10;100.00
64141;BME280;50436;50.618;7.932;2023-08-21T04:35:40;97173.75;;;19.05;100.00
64141;BME280;50436;50.618;7.932;2023-08-21T04:38:26;97174.16;;;18.93;100.00
64141;BME280;50436;50.618;7.932;2023-08-21T04:41:11;97172.88;;;18.86;100.00
64141;BME280;50436;50.618;7.932;2023-08-21T04:44:02;97179.94;;;18.82;100.00
64141;BME280;50436;50.618;7.932;2023-08-21T04:46:50;97173.19;;;18.79;100.00
64141;BME280;50436;50.618;7.932;2023-08-21T04:49:36;97173.69;;;18.81;100.00
64141;BME280;50436;50.618;7.932;2023-08-21T04:52:22;97179.91;;;18.87;100.00
64141;BME280;50436;50.618;7.932;2023-08-21T04:55:08;97175.00;;;18.89;100.00
64141;BME280;50436;50.618;7.932;2023-08-21T04:57:56;97177.09;;;18.97;100.00
64141;BME280;50436;50.618;7.932;2023-08-21T05:00:44;97180.81;;;19.06;100.00
64141;BME280;50436;50.618;7.932;2023-08-21T05:03:31;97179.13;;;19.15;100.00
64141;BME280;50436;50.618;7.932;2023-08-21T05:06:17;97186.56;;;19.29;100.00
64141;BME280;50436;50.618;7.932;2023-08-21T05:09:05;97189.38;;;19.47;100.00
64141;BME280;50436;50.618;7.932;2023-08-21T05:11:51;97188.13;;;19.64;100.00
64141;BME280;50436;50.618;7.932;2023-08-21T05:14:37;97185.59;;;19.72;100.00
64141;BME280;50436;50.618;7.932;2023-08-21T05:17:24;97192.78;;;19.82;100.00
64141;BME280;50436;50.618;7.932;2023-08-21T05:20:11;97188.94;;;19.88;100.00
64141;BME280;50436;50.618;7.932;2023-08-21T05:22:59;97183.44;;;19.93;100.00
64141;BME280;50436;50.618;7.932;2023-08-21T05:25:47;97174.41;;;19.98;100.00
64141;BME280;50436;50.618;7.932;2023-08-21T05:28:34;97175.75;;;20.00;100.00
64141;BME280;50436;50.618;7.932;2023-08-21T05:31:20;97180.81;;;20.07;100.00
64141;BME280;50436;50.618;7.932;2023-08-21T05:34:10;97187.50;;;20.15;100.00
64141;BME280;50436;50.618;7.932;2023-08-21T05:36:56;97184.88;;;20.28;100.00
64141;BME280;50436;50.618;7.932;2023-08-21T05:39:42;97179.88;;;20.36;100.00
64141;BME280;50436;50.618;7.932;2023-08-21T05:42:28;97181.78;;;20.35;100.00
64141;BME280;50436;50.618;7.932;2023-08-21T05:45:14;97191.72;;;20.45;100.00
64141;BME280;50436;50.618;7.932;2023-08-21T05:48:00;97190.69;;;20.41;100.00
64141;BME280;50436;50.618;7.932;2023-08-21T05:50:53;97193.53;;;20.30;100.00
64141;BME280;50436;50.618;7.932;2023-08-21T05:53:39;97197.44;;;20.24;100.00
64141;BME280;50436;50.618;7.932;2023-08-21T05:56:25;97190.44;;;20.18;100.00
64141;BME280;50436;50.618;7.932;2023-08-21T05:59:11;97196.75;;;20.14;100.00
64141;BME280;50436;50.618;7.932;2023-08-21T06:01:58;97199.75;;;20.31;100.00
64141;BME280;50436;50.618;7.932;2023-08-21T06:04:46;97194.28;;;20.36;100.00
64141;BME280;50436;50.618;7.932;2023-08-21T06:07:32;97191.34;;;20.33;100.00
64141;BME280;50436;50.618;7.932;2023-08-21T06:10:18;97184.66;;;20.25;100.00
64141;BME280;50436;50.618;7.932;2023-08-21T06:13:04;97194.13;;;20.27;100.00
64141;BME280;50436;50.618;7.932;2023-08-21T06:15:50;97196.34;;;20.25;100.00
64141;BME280;50436;50.618;7.932;2023-08-21T06:18:36;97200.81;;;20.16;100.00
64141;BME280;50436;50.618;7.932;2023-08-21T06:21:21;97205.13;;;20.36;100.00
64141;BME280;50436;50.618;7.932;2023-08-21T06:24:07;97199.94;;;20.40;100.00
64141;BME280;50436;50.618;7.932;2023-08-21T06:26:54;97201.94;;;20.53;100.00
64141;BME280;50436;50.618;7.932;2023-08-21T06:29:40;97200.69;;;20.64;100.00
64141;BME280;50436;50.618;7.932;2023-08-21T06:32:26;97203.25;;;20.74;100.00
64141;BME280;50436;50.618;7.932;2023-08-21T06:35:12;97202.38;;;20.79;100.00
64141;BME280;50436;50.618;7.932;2023-08-21T06:37:58;97204.72;;;20.85;100.00
64141;BME280;50436;50.618;7.932;2023-08-21T06:40:45;97201.91;;;20.91;100.00
64141;BME280;50436;50.618;7.932;2023-08-21T06:43:31;97209.19;;;20.95;100.00
64141;BME280;50436;50.618;7.932;2023-08-21T06:46:17;97202.94;;;20.95;100.00
64141;BME280;50436;50.618;7.932;2023-08-21T06:49:03;97205.94;;;20.93;100.00
64141;BME280;50436;50.618;7.932;2023-08-21T06:51:49;97206.09;;;21.02;100.00
64141;BME280;50436;50.618;7.932;2023-08-21T06:54:35;97200.53;;;21.07;100.00
64141;BME280;50436;50.618;7.932;2023-08-21T06:57:21;97192.31;;;21.12;100.00
64141;BME280;50436;50.618;7.932;2023-08-21T07:00:08;97204.28;;;21.30;100.00
64141;BME280;50436;50.618;7.932;2023-08-21T07:02:54;97208.41;;;21.27;100.00
64141;BME280;50436;50.618;7.932;2023-08-21T07:05:40;97199.53;;;21.35;100.00
64141;BME280;50436;50.618;7.932;2023-08-21T07:08:27;97197.13;;;21.48;100.00
64141;BME280;50436;50.618;7.932;2023-08-21T07:11:13;97202.19;;;21.68;100.00
64141;BME280;50436;50.618;7.932;2023-08-21T07:13:59;97201.31;;;21.73;100.00
64141;BME280;50436;50.618;7.932;2023-08-21T07:16:44;97199.97;;;21.70;100.00
64141;BME280;50436;50.618;7.932;2023-08-21T07:19:30;97204.22;;;21.76;100.00
64141;BME280;50436;50.618;7.932;2023-08-21T07:22:16;97208.38;;;21.87;100.00
64141;BME280;50436;50.618;7.932;2023-08-21T07:25:02;97206.94;;;22.04;100.00
64141;BME280;50436;50.618;7.932;2023-08-21T07:27:49;97212.22;;;22.14;100.00
64141;BME280;50436;50.618;7.932;2023-08-21T07:30:37;97208.78;;;22.22;100.00
64141;BME280;50436;50.618;7.932;2023-08-21T07:33:27;97216.00;;;22.40;100.00
64141;BME280;50436;50.618;7.932;2023-08-21T07:36:12;97217.31;;;22.43;100.00
64141;BME280;50436;50.618;7.932;2023-08-21T07:39:04;97214.91;;;22.41;100.00
64141;BME280;50436;50.618;7.932;2023-08-21T07:41:50;97208.09;;;22.52;100.00
64141;BME280;50436;50.618;7.932;2023-08-21T07:44:41;97209.47;;;22.64;100.00
64141;BME280;50436;50.618;7.932;2023-08-21T07:47:27;97197.53;;;22.73;100.00
64141;BME280;50436;50.618;7.932;2023-08-21T07:50:13;97209.72;;;22.90;100.00
64141;BME280;50436;50.618;7.932;2023-08-21T07:53:00;97211.25;;;22.82;100.00
64141;BME280;50436;50.618;7.932;2023-08-21T07:55:45;97210.44;;;22.82;100.00
64141;BME280;50436;50.618;7.932;2023-08-21T07:58:32;97211.44;;;22.86;100.00
64141;BME280;50436;50.618;7.932;2023-08-21T08:01:18;97213.75;;;22.92;100.00
64141;BME280;50436;50.618;7.932;2023-08-21T08:04:06;97210.09;;;22.97;100.00
64141;BME280;50436;50.618;7.932;2023-08-21T08:06:52;97211.66;;;23.12;100.00
64141;BME280;50436;50.618;7.932;2023-08-21T08:09:38;97217.47;;;23.19;100.00
64141;BME280;50436;50.618;7.932;2023-08-21T08:12:24;97210.63;;;23.30;100.00
64141;BME280;50436;50.618;7.932;2023-08-21T08:15:14;97211.69;;;23.43;100.00
64141;BME280;50436;50.618;7.932;2023-08-21T08:18:01;97204.91;;;23.40;100.00
64141;BME280;50436;50.618;7.932;2023-08-21T08:20:47;97217.78;;;23.48;100.00
64141;BME280;50436;50.618;7.932;2023-08-21T08:23:33;97221.59;;;23.61;100.00
64141;BME280;50436;50.618;7.932;2023-08-21T08:26:18;97223.38;;;23.66;100.00
64141;BME280;50436;50.618;7.932;2023-08-21T08:29:04;97217.34;;;23.77;100.00
64141;BME280;50436;50.618;7.932;2023-08-21T08:31:53;97223.50;;;23.92;100.00
64141;BME280;50436;50.618;7.932;2023-08-21T08:34:39;97218.38;;;23.99;100.00
64141;BME280;50436;50.618;7.932;2023-08-21T08:37:25;97222.31;;;24.24;100.00
64141;BME280;50436;50.618;7.932;2023-08-21T08:40:11;97213.44;;;24.27;100.00
64141;BME280;50436;50.618;7.932;2023-08-21T08:42:57;97227.91;;;24.18;100.00
64141;BME280;50436;50.618;7.932;2023-08-21T08:45:44;97218.22;;;24.52;100.00
64141;BME280;50436;50.618;7.932;2023-08-21T08:48:34;97219.16;;;24.82;100.00
64141;BME280;50436;50.618;7.932;2023-08-21T08:51:20;97214.34;;;25.05;100.00
64141;BME280;50436;50.618;7.932;2023-08-21T08:54:06;97219.16;;;25.25;100.00
64141;BME280;50436;50.618;7.932;2023-08-21T08:56:53;97214.47;;;25.35;100.00
64141;BME280;50436;50.618;7.932;2023-08-21T08:59:39;97212.69;;;25.47;100.00
64141;BME280;50436;50.618;7.932;2023-08-21T09:02:27;97222.53;;;25.40;100.00
64141;BME280;50436;50.618;7.932;2023-08-21T09:05:13;97223.34;;;25.32;100.00
64141;BME280;50436;50.618;7.932;2023-08-21T09:08:12;97212.81;;;25.51;100.00
64141;BME280;50436;50.618;7.932;2023-08-21T09:11:01;97221.69;;;25.48;100.00
64141;BME280;50436;50.618;7.932;2023-08-21T09:13:49;97216.97;;;25.66;100.00
64141;BME280;50436;50.618;7.932;2023-08-21T09:16:59;97216.34;;;25.60;100.00
64141;BME280;50436;50.618;7.932;2023-08-21T09:19:46;97222.19;;;25.97;100.00
64141;BME280;50436;50.618;7.932;2023-08-21T09:22:32;97216.66;;;26.35;100.00
64141;BME280;50436;50.618;7.932;2023-08-21T09:25:18;97212.72;;;26.74;100.00
64141;BME280;50436;50.618;7.932;2023-08-21T09:28:05;97209.09;;;27.24;100.00
64141;BME280;50436;50.618;7.932;2023-08-21T09:30:54;97209.25;;;27.52;100.00
64141;BME280;50436;50.618;7.932;2023-08-21T09:33:40;97205.56;;;27.81;100.00
64141;BME280;50436;50.618;7.932;2023-08-21T09:36:29;97209.69;;;27.99;100.00
64141;BME280;50436;50.618;7.932;2023-08-21T09:39:15;97207.97;;;28.19;100.00
64141;BME280;50436;50.618;7.932;2023-08-21T09:42:07;97209.00;;;28.27;100.00
64141;BME280;50436;50.618;7.932;2023-08-21T09:44:53;97212.56;;;28.03;100.00
64141;BME280;50436;50.618;7.932;2023-08-21T09:47:39;97214.50;;;27.90;100.00
64141;BME280;50436;50.618;7.932;2023-08-21T09:50:26;97216.22;;;27.95;100.00
64141;BME280;50436;50.618;7.932;2023-08-21T09:53:14;97223.31;;;27.71;100.00
64141;BME280;50436;50.618;7.932;2023-08-21T09:56:00;97209.97;;;27.16;100.00
64141;BME280;50436;50.618;7.932;2023-08-21T09:58:50;97215.31;;;28.03;100.00
64141;BME280;50436;50.618;7.932;2023-08-21T10:01:36;97217.00;;;27.71;100.00
64141;BME280;50436;50.618;7.932;2023-08-21T10:04:25;97210.16;;;27.11;100.00
64141;BME280;50436;50.618;7.932;2023-08-21T10:07:11;97214.66;;;26.94;100.00
64141;BME280;50436;50.618;7.932;2023-08-21T10:09:58;97218.19;;;26.95;100.00
64141;BME280;50436;50.618;7.932;2023-08-21T10:12:44;97215.78;;;27.47;100.00
64141;BME280;50436;50.618;7.932;2023-08-21T10:15:34;97211.53;;;28.44;100.00
64141;BME280;50436;50.618;7.932;2023-08-21T10:18:24;97199.63;;;29.21;100.00
64141;BME280;50436;50.618;7.932;2023-08-21T10:21:18;97208.16;;;29.59;100.00
64141;BME280;50436;50.618;7.932;2023-08-21T10:24:04;97203.19;;;29.96;100.00
64141;BME280;50436;50.618;7.932;2023-08-21T10:26:50;97203.22;;;29.37;100.00
64141;BME280;50436;50.618;7.932;2023-08-21T10:29:38;97201.25;;;29.65;98.71
64141;BME280;50436;50.618;7.932;2023-08-21T10:32:24;97198.91;;;29.99;100.00
64141;BME280;50436;50.618;7.932;2023-08-21T10:35:14;97193.56;;;30.06;97.75
64141;BME280;50436;50.618;7.932;2023-08-21T10:38:14;97201.06;;;30.06;99.01
64141;BME280;50436;50.618;7.932;2023-08-21T10:41:08;97193.75;;;29.98;98.01
64141;BME280;50436;50.618;7.932;2023-08-21T10:43:56;97199.00;;;29.55;100.00
64141;BME280;50436;50.618;7.932;2023-08-21T10:46:50;97206.28;;;29.95;98.27
64141;BME280;50436;50.618;7.932;2023-08-21T10:49:38;97198.84;;;30.82;96.46
64141;BME280;50436;50.618;7.932;2023-08-21T10:55:11;97202.75;;;30.61;95.90
64141;BME280;50436;50.618;7.932;2023-08-21T10:57:57;97206.94;;;30.55;94.67
64141;BME280;50436;50.618;7.932;2023-08-21T11:00:43;97200.03;;;31.00;94.63
64141;BME280;50436;50.618;7.932;2023-08-21T11:03:30;97202.09;;;32.90;86.71
64141;BME280;50436;50.618;7.932;2023-08-21T11:06:18;97213.25;;;33.27;82.95
64141;BME280;50436;50.618;7.932;2023-08-21T11:09:04;97189.22;;;37.98;53.89
64141;BME280;50436;50.618;7.932;2023-08-21T11:11:50;97196.53;;;35.33;68.73
64141;BME280;50436;50.618;7.932;2023-08-21T11:14:40;97200.28;;;36.01;65.06
64141;BME280;50436;50.618;7.932;2023-08-21T11:17:25;97189.38;;;40.19;41.82
64141;BME280;50436;50.618;7.932;2023-08-21T11:20:11;97198.13;;;41.47;37.32
64141;BME280;50436;50.618;7.932;2023-08-21T11:22:58;97198.81;;;41.35;36.90
64141;BME280;50436;50.618;7.932;2023-08-21T11:25:44;97191.97;;;42.37;32.56
64141;BME280;50436;50.618;7.932;2023-08-21T11:28:31;97198.66;;;43.30;31.84
64141;BME280;50436;50.618;7.932;2023-08-21T11:31:17;97197.50;;;41.56;36.27
64141;BME280;50436;50.618;7.932;2023-08-21T11:34:03;97207.78;;;42.31;32.61
64141;BME280;50436;50.618;7.932;2023-08-21T11:36:49;97194.91;;;39.11;40.33
64141;BME280;50436;50.618;7.932;2023-08-21T11:39:39;97204.47;;;35.20;60.39
64141;BME280;50436;50.618;7.932;2023-08-21T11:42:29;97199.72;;;34.48;70.31
64141;BME280;50436;50.618;7.932;2023-08-21T11:45:16;97201.53;;;37.52;55.93
64141;BME280;50436;50.618;7.932;2023-08-21T11:48:01;97196.31;;;41.17;36.70
64141;BME280;50436;50.618;7.932;2023-08-21T11:50:48;97191.41;;;38.65;47.38
64141;BME280;50436;50.618;7.932;2023-08-21T11:53:38;97188.97;;;37.74;50.47
64141;BME280;50436;50.618;7.932;2023-08-21T11:56:27;97179.03;;;42.40;32.61
64141;BME280;50436;50.618;7.932;2023-08-21T11:59:23;97182.69;;;40.99;34.57
64141;BME280;50436;50.618;7.932;2023-08-21T12:02:23;97183.50;;;43.79;28.24
64141;BME280;50436;50.618;7.932;2023-08-21T12:05:14;97190.00;;;45.40;25.19
64141;BME280;50436;50.618;7.932;2023-08-21T12:08:00;97195.75;;;41.82;31.07
64141;BME280;50436;50.618;7.932;2023-08-21T12:10:50;97193.03;;;41.22;34.79
64141;BME280;50436;50.618;7.932;2023-08-21T12:13:37;97191.91;;;37.60;46.76
64141;BME280;50436;50.618;7.932;2023-08-21T12:16:23;97196.13;;;35.24;64.91
64141;BME280;50436;50.618;7.932;2023-08-21T12:19:09;97175.00;;;38.71;40.88
64141;BME280;50436;50.618;7.932;2023-08-21T12:21:57;97181.00;;;37.80;48.76
64141;BME280;50436;50.618;7.932;2023-08-21T12:24:44;97176.38;;;35.57;57.00
64141;BME280;50436;50.618;7.932;2023-08-21T12:27:30;97169.09;;;35.13;64.08
64141;BME280;50436;50.618;7.932;2023-08-21T12:30:16;97176.78;;;34.61;69.68
64141;BME280;50436;50.618;7.932;2023-08-21T12:33:02;97166.47;;;34.03;71.79
64141;BME280;50436;50.618;7.932;2023-08-21T12:35:48;97172.22;;;33.40;76.33
64141;BME280;50436;50.618;7.932;2023-08-21T12:38:34;97173.19;;;33.58;75.91
64141;BME280;50436;50.618;7.932;2023-08-21T12:41:20;97171.03;;;38.27;44.80
64141;BME280;50436;50.618;7.932;2023-08-21T12:44:08;97171.66;;;42.46;32.61
64141;BME280;50436;50.618;7.932;2023-08-21T12:46:54;97170.72;;;45.47;26.60
64141;BME280;50436;50.618;7.932;2023-08-21T12:49:40;97181.38;;;45.83;24.50
64141;BME280;50436;50.618;7.932;2023-08-21T12:52:26;97167.53;;;47.08;22.87
64141;BME280;50436;50.618;7.932;2023-08-21T12:55:14;97179.28;;;47.43;22.69
64141;BME280;50436;50.618;7.932;2023-08-21T12:58:00;97172.47;;;48.25;21.97
64141;BME280;50436;50.618;7.932;2023-08-21T13:00:46;97165.41;;;47.88;20.47
64141;BME280;50436;50.618;7.932;2023-08-21T13:03:35;97170.63;;;42.23;27.29
64141;BME280;50436;50.618;7.932;2023-08-21T13:06:21;97175.47;;;41.74;28.96
64141;BME280;50436;50.618;7.932;2023-08-21T13:09:07;97159.28;;;44.76;25.60
64141;BME280;50436;50.618;7.932;2023-08-21T13:11:54;97161.31;;;44.76;24.19
64141;BME280;50436;50.618;7.932;2023-08-21T13:14:40;97161.63;;;41.63;28.97
64141;BME280;50436;50.618;7.932;2023-08-21T13:17:26;97161.22;;;38.50;39.78
64141;BME280;50436;50.618;7.932;2023-08-21T13:20:12;97164.00;;;36.69;52.85
64141;BME280;50436;50.618;7.932;2023-08-21T13:22:58;97153.66;;;38.05;48.62
64141;BME280;50436;50.618;7.932;2023-08-21T13:25:44;97153.91;;;43.07;30.89
64141;BME280;50436;50.618;7.932;2023-08-21T13:28:30;97160.03;;;41.46;32.65
64141;BME280;50436;50.618;7.932;2023-08-21T13:31:16;97148.81;;;43.44;30.09
64141;BME280;50436;50.618;7.932;2023-08-21T13:34:02;97156.44;;;45.82;25.93
64141;BME280;50436;50.618;7.932;2023-08-21T13:36:49;97157.16;;;44.89;27.22
64141;BME280;50436;50.618;7.932;2023-08-21T13:39:35;97150.47;;;47.45;23.27
64141;BME280;50436;50.618;7.932;2023-08-21T13:42:20;97155.47;;;48.16;21.78
64141;BME280;50436;50.618;7.932;2023-08-21T13:45:08;97142.66;;;47.73;21.45
64141;BME280;50436;50.618;7.932;2023-08-21T13:47:55;97151.75;;;41.91;28.80
64141;BME280;50436;50.618;7.932;2023-08-21T13:50:41;97144.53;;;39.41;34.73
64141;BME280;50436;50.618;7.932;2023-08-21T13:53:27;97142.72;;;42.62;29.41
64141;BME280;50436;50.618;7.932;2023-08-21T13:56:13;97139.53;;;45.60;25.16
64141;BME280;50436;50.618;7.932;2023-08-21T13:58:59;97131.84;;;45.29;25.13
64141;BME280;50436;50.618;7.932;2023-08-21T14:01:45;97137.25;;;42.09;29.89
64141;BME280;50436;50.618;7.932;2023-08-21T14:04:32;97139.13;;;41.31;32.44
64141;BME280;50436;50.618;7.932;2023-08-21T14:07:18;97129.28;;;43.49;27.68
64141;BME280;50436;50.618;7.932;2023-08-21T14:10:04;97134.00;;;42.85;28.43
64141;BME280;50436;50.618;7.932;2023-08-21T14:12:53;97122.47;;;44.23;27.28
64141;BME280;50436;50.618;7.932;2023-08-21T14:15:39;97126.13;;;45.82;24.32
64141;BME280;50436;50.618;7.932;2023-08-21T14:18:25;97118.56;;;46.47;23.03
64141;BME280;50436;50.618;7.932;2023-08-21T14:21:10;97116.47;;;47.78;21.99
64141;BME280;50436;50.618;7.932;2023-08-21T14:23:56;97119.13;;;46.97;21.96
64141;BME280;50436;50.618;7.932;2023-08-21T14:26:42;97122.09;;;43.48;26.03
64141;BME280;50436;50.618;7.932;2023-08-21T14:29:28;97112.41;;;40.23;32.63
64141;BME280;50436;50.618;7.932;2023-08-21T14:32:14;97123.53;;;38.65;39.07
64141;BME280;50436;50.618;7.932;2023-08-21T14:35:00;97126.31;;;37.23;47.85
64141;BME280;50436;50.618;7.932;2023-08-21T14:37:46;97124.94;;;36.72;49.67
64141;BME280;50436;50.618;7.932;2023-08-21T14:40:31;97119.72;;;37.58;49.85
64141;BME280;50436;50.618;7.932;2023-08-21T14:43:17;97121.19;;;41.61;32.44
64141;BME280;50436;50.618;7.932;2023-08-21T14:46:03;97112.53;;;43.58;28.57